Terminal Aerodrome Forecast
Issued by NWS Cleveland, OH

Home | Current Version | Previous Version | Text Only | Print | Product List | Glossary Off
Versions: 1 2 3 4 5 6 7 8 9 10 11 12 13 14 15

972
FTUS41 KCLE 151724
TAFMFD
TAF
KMFD 151724Z 1518/1618 27006KT P6SM VCSH BKN045
     FM160100 33002KT P6SM FEW050 SCT250
     FM160800 00000KT 3SM BR SCT004
     FM161400 06004KT P6SM SCT250
     FM161700 07005KT P6SM SCT040=

USA.gov is the U.S. government's official web portal to all federal, state and local government web resources and services.